sensor_id;sensor_type;location;lat;lon;timestamp;P1;durP1;ratioP1;P2;durP2;ratioP2
58992;SDS011;44782;0.000;0.000;2022-10-16T00:02:03;1.67;;;1.57;;
58992;SDS011;44782;0.000;0.000;2022-10-16T00:04:19;1.87;;;1.60;;
58992;SDS011;44782;0.000;0.000;2022-10-16T00:06:35;1.77;;;1.67;;
58992;SDS011;44782;0.000;0.000;2022-10-16T00:08:50;1.63;;;1.50;;
58992;SDS011;44782;0.000;0.000;2022-10-16T00:11:26;1.60;;;1.50;;
58992;SDS011;44782;0.000;0.000;2022-10-16T00:13:48;1.70;;;1.60;;
58992;SDS011;44782;0.000;0.000;2022-10-16T00:16:06;1.57;;;1.47;;
58992;SDS011;44782;0.000;0.000;2022-10-16T00:18:23;1.60;;;1.50;;
58992;SDS011;44782;0.000;0.000;2022-10-16T00:20:39;1.50;;;1.40;;
58992;SDS011;44782;0.000;0.000;2022-10-16T00:22:55;1.60;;;1.50;;
58992;SDS011;44782;0.000;0.000;2022-10-16T00:25:10;1.50;;;1.40;;
58992;SDS011;44782;0.000;0.000;2022-10-16T00:27:26;1.50;;;1.40;;
58992;SDS011;44782;0.000;0.000;2022-10-16T00:29:42;1.63;;;1.53;;
58992;SDS011;44782;0.000;0.000;2022-10-16T00:31:58;1.47;;;1.37;;
58992;SDS011;44782;0.000;0.000;2022-10-16T00:34:13;1.60;;;1.50;;
58992;SDS011;44782;0.000;0.000;2022-10-16T00:36:29;1.70;;;1.60;;
58992;SDS011;44782;0.000;0.000;2022-10-16T00:38:45;1.60;;;1.50;;
58992;SDS011;44782;0.000;0.000;2022-10-16T00:41:01;1.50;;;1.40;;
58992;SDS011;44782;0.000;0.000;2022-10-16T00:45:51;1.57;;;1.47;;
58992;SDS011;44782;0.000;0.000;2022-10-16T00:48:07;1.70;;;1.60;;
58992;SDS011;44782;0.000;0.000;2022-10-16T00:50:31;1.70;;;1.60;;
58992;SDS011;44782;0.000;0.000;2022-10-16T00:52:48;1.63;;;1.53;;
58992;SDS011;44782;0.000;0.000;2022-10-16T00:55:05;1.50;;;1.40;;
58992;SDS011;44782;0.000;0.000;2022-10-16T00:57:23;1.57;;;1.47;;
58992;SDS011;44782;0.000;0.000;2022-10-16T00:59:40;1.47;;;1.37;;
58992;SDS011;44782;0.000;0.000;2022-10-16T01:01:57;1.30;;;1.20;;
58992;SDS011;44782;0.000;0.000;2022-10-16T01:04:14;1.60;;;1.50;;
58992;SDS011;44782;0.000;0.000;2022-10-16T01:06:40;1.50;;;1.40;;
58992;SDS011;44782;0.000;0.000;2022-10-16T01:14:22;1.50;;;1.40;;
58992;SDS011;44782;0.000;0.000;2022-10-16T01:17:00;1.50;;;1.40;;
58992;SDS011;44782;0.000;0.000;2022-10-16T01:22:04;1.60;;;1.50;;
58992;SDS011;44782;0.000;0.000;2022-10-16T01:24:37;1.73;;;1.40;;
58992;SDS011;44782;0.000;0.000;2022-10-16T01:31:50;1.70;;;1.60;;
58992;SDS011;44782;0.000;0.000;2022-10-16T01:34:14;1.60;;;1.50;;
58992;SDS011;44782;0.000;0.000;2022-10-16T01:36:40;1.40;;;1.30;;
58992;SDS011;44782;0.000;0.000;2022-10-16T01:39:00;1.43;;;1.33;;
58992;SDS011;44782;0.000;0.000;2022-10-16T01:41:19;1.57;;;1.47;;
58992;SDS011;44782;0.000;0.000;2022-10-16T01:43:41;2.10;;;1.50;;
58992;SDS011;44782;0.000;0.000;2022-10-16T01:46:00;1.30;;;1.27;;
58992;SDS011;44782;0.000;0.000;2022-10-16T01:48:17;1.50;;;1.40;;
58992;SDS011;44782;0.000;0.000;2022-10-16T01:50:37;1.40;;;1.30;;
58992;SDS011;44782;0.000;0.000;2022-10-16T01:52:54;1.37;;;1.30;;
58992;SDS011;44782;0.000;0.000;2022-10-16T01:55:13;1.50;;;1.40;;
58992;SDS011;44782;0.000;0.000;2022-10-16T01:57:32;1.40;;;1.30;;
58992;SDS011;44782;0.000;0.000;2022-10-16T01:59:52;1.50;;;1.40;;
58992;SDS011;44782;0.000;0.000;2022-10-16T02:02:10;1.43;;;1.33;;
58992;SDS011;44782;0.000;0.000;2022-10-16T02:04:29;1.83;;;1.73;;
58992;SDS011;44782;0.000;0.000;2022-10-16T02:06:52;1.90;;;1.80;;
58992;SDS011;44782;0.000;0.000;2022-10-16T02:09:08;2.13;;;2.00;;
58992;SDS011;44782;0.000;0.000;2022-10-16T02:11:24;2.63;;;2.43;;
58992;SDS011;44782;0.000;0.000;2022-10-16T02:13:51;2.80;;;2.50;;
58992;SDS011;44782;0.000;0.000;2022-10-16T02:16:11;3.10;;;2.30;;
58992;SDS011;44782;0.000;0.000;2022-10-16T02:18:28;3.10;;;2.80;;
58992;SDS011;44782;0.000;0.000;2022-10-16T02:21:31;3.07;;;2.70;;
58992;SDS011;44782;0.000;0.000;2022-10-16T02:26:26;3.03;;;2.23;;
58992;SDS011;44782;0.000;0.000;2022-10-16T02:28:47;2.37;;;2.17;;
58992;SDS011;44782;0.000;0.000;2022-10-16T02:31:10;2.30;;;2.10;;
58992;SDS011;44782;0.000;0.000;2022-10-16T02:33:28;2.30;;;2.10;;
58992;SDS011;44782;0.000;0.000;2022-10-16T02:35:46;2.30;;;2.10;;
58992;SDS011;44782;0.000;0.000;2022-10-16T02:38:03;2.73;;;2.00;;
58992;SDS011;44782;0.000;0.000;2022-10-16T02:40:20;2.20;;;2.00;;
58992;SDS011;44782;0.000;0.000;2022-10-16T02:42:37;1.70;;;1.60;;
58992;SDS011;44782;0.000;0.000;2022-10-16T02:44:54;2.10;;;1.90;;
58992;SDS011;44782;0.000;0.000;2022-10-16T02:47:10;1.80;;;1.70;;
58992;SDS011;44782;0.000;0.000;2022-10-16T02:49:26;1.80;;;1.67;;
58992;SDS011;44782;0.000;0.000;2022-10-16T02:51:42;1.70;;;1.60;;
58992;SDS011;44782;0.000;0.000;2022-10-16T02:53:58;1.73;;;1.63;;
58992;SDS011;44782;0.000;0.000;2022-10-16T02:56:13;1.93;;;1.70;;
58992;SDS011;44782;0.000;0.000;2022-10-16T02:58:29;1.50;;;1.40;;
58992;SDS011;44782;0.000;0.000;2022-10-16T03:00:44;1.60;;;1.47;;
58992;SDS011;44782;0.000;0.000;2022-10-16T03:03:01;1.57;;;1.47;;
58992;SDS011;44782;0.000;0.000;2022-10-16T03:05:16;1.60;;;1.50;;
58992;SDS011;44782;0.000;0.000;2022-10-16T03:07:32;1.60;;;1.50;;
58992;SDS011;44782;0.000;0.000;2022-10-16T03:09:48;1.50;;;1.40;;
58992;SDS011;44782;0.000;0.000;2022-10-16T03:12:03;2.60;;;1.33;;
58992;SDS011;44782;0.000;0.000;2022-10-16T03:14:19;1.70;;;1.60;;
58992;SDS011;44782;0.000;0.000;2022-10-16T03:16:35;1.80;;;1.47;;
58992;SDS011;44782;0.000;0.000;2022-10-16T03:18:50;1.63;;;1.50;;
58992;SDS011;44782;0.000;0.000;2022-10-16T03:21:06;1.73;;;1.63;;
58992;SDS011;44782;0.000;0.000;2022-10-16T03:23:21;1.67;;;1.50;;
58992;SDS011;44782;0.000;0.000;2022-10-16T03:25:37;1.50;;;1.40;;
58992;SDS011;44782;0.000;0.000;2022-10-16T03:27:53;1.33;;;1.23;;
58992;SDS011;44782;0.000;0.000;2022-10-16T03:30:09;1.50;;;1.40;;
58992;SDS011;44782;0.000;0.000;2022-10-16T03:32:25;1.50;;;1.40;;
58992;SDS011;44782;0.000;0.000;2022-10-16T03:34:40;1.60;;;1.50;;
58992;SDS011;44782;0.000;0.000;2022-10-16T03:36:56;1.50;;;1.40;;
58992;SDS011;44782;0.000;0.000;2022-10-16T03:39:12;1.53;;;1.30;;
58992;SDS011;44782;0.000;0.000;2022-10-16T03:41:27;1.50;;;1.40;;
58992;SDS011;44782;0.000;0.000;2022-10-16T03:43:43;1.50;;;1.40;;
58992;SDS011;44782;0.000;0.000;2022-10-16T03:45:59;1.30;;;1.20;;
58992;SDS011;44782;0.000;0.000;2022-10-16T03:48:15;1.40;;;1.30;;
58992;SDS011;44782;0.000;0.000;2022-10-16T03:50:30;1.43;;;1.27;;
58992;SDS011;44782;0.000;0.000;2022-10-16T03:52:46;1.30;;;1.30;;
58992;SDS011;44782;0.000;0.000;2022-10-16T03:55:01;1.20;;;1.20;;
58992;SDS011;44782;0.000;0.000;2022-10-16T03:57:17;1.40;;;1.20;;
58992;SDS011;44782;0.000;0.000;2022-10-16T03:59:33;2.17;;;1.30;;
58992;SDS011;44782;0.000;0.000;2022-10-16T04:01:49;1.40;;;1.30;;
58992;SDS011;44782;0.000;0.000;2022-10-16T04:04:04;2.07;;;1.30;;
58992;SDS011;44782;0.000;0.000;2022-10-16T04:06:20;1.40;;;1.30;;
58992;SDS011;44782;0.000;0.000;2022-10-16T04:08:36;1.57;;;1.40;;
58992;SDS011;44782;0.000;0.000;2022-10-16T04:10:51;1.40;;;1.30;;
58992;SDS011;44782;0.000;0.000;2022-10-16T04:13:07;1.57;;;1.47;;
58992;SDS011;44782;0.000;0.000;2022-10-16T04:15:23;1.47;;;1.37;;
58992;SDS011;44782;0.000;0.000;2022-10-16T04:17:39;2.20;;;1.27;;
58992;SDS011;44782;0.000;0.000;2022-10-16T04:19:54;1.40;;;1.20;;
58992;SDS011;44782;0.000;0.000;2022-10-16T04:22:10;1.30;;;1.30;;
58992;SDS011;44782;0.000;0.000;2022-10-16T04:24:26;1.40;;;1.27;;
58992;SDS011;44782;0.000;0.000;2022-10-16T04:26:41;1.33;;;1.27;;
58992;SDS011;44782;0.000;0.000;2022-10-16T04:28:57;1.40;;;1.30;;
58992;SDS011;44782;0.000;0.000;2022-10-16T04:31:13;1.40;;;1.30;;
58992;SDS011;44782;0.000;0.000;2022-10-16T04:33:28;1.40;;;1.30;;
58992;SDS011;44782;0.000;0.000;2022-10-16T04:35:44;1.40;;;1.30;;
58992;SDS011;44782;0.000;0.000;2022-10-16T04:37:59;1.20;;;1.10;;
58992;SDS011;44782;0.000;0.000;2022-10-16T04:40:15;1.40;;;1.30;;
58992;SDS011;44782;0.000;0.000;2022-10-16T04:42:31;1.47;;;1.37;;
58992;SDS011;44782;0.000;0.000;2022-10-16T04:44:46;1.57;;;1.47;;
58992;SDS011;44782;0.000;0.000;2022-10-16T04:47:02;1.40;;;1.30;;
58992;SDS011;44782;0.000;0.000;2022-10-16T04:49:17;1.50;;;1.40;;
58992;SDS011;44782;0.000;0.000;2022-10-16T04:51:33;1.10;;;1.10;;
58992;SDS011;44782;0.000;0.000;2022-10-16T04:53:49;1.40;;;1.30;;
58992;SDS011;44782;0.000;0.000;2022-10-16T04:56:04;1.73;;;1.40;;
58992;SDS011;44782;0.000;0.000;2022-10-16T04:58:20;1.30;;;1.20;;
58992;SDS011;44782;0.000;0.000;2022-10-16T05:00:36;1.47;;;1.37;;
58992;SDS011;44782;0.000;0.000;2022-10-16T05:02:53;1.50;;;1.40;;
58992;SDS011;44782;0.000;0.000;2022-10-16T05:05:09;1.50;;;1.40;;
58992;SDS011;44782;0.000;0.000;2022-10-16T05:07:24;1.43;;;1.33;;
58992;SDS011;44782;0.000;0.000;2022-10-16T05:09:40;1.50;;;1.40;;
58992;SDS011;44782;0.000;0.000;2022-10-16T05:11:56;2.50;;;1.33;;
58992;SDS011;44782;0.000;0.000;2022-10-16T05:14:11;1.60;;;1.30;;
58992;SDS011;44782;0.000;0.000;2022-10-16T05:16:27;1.40;;;1.30;;
58992;SDS011;44782;0.000;0.000;2022-10-16T05:18:42;1.40;;;1.27;;
58992;SDS011;44782;0.000;0.000;2022-10-16T05:20:58;1.40;;;1.30;;
58992;SDS011;44782;0.000;0.000;2022-10-16T05:23:14;1.60;;;1.27;;
58992;SDS011;44782;0.000;0.000;2022-10-16T05:25:29;1.37;;;1.27;;
58992;SDS011;44782;0.000;0.000;2022-10-16T05:27:48;1.73;;;1.30;;
58992;SDS011;44782;0.000;0.000;2022-10-16T05:30:04;1.10;;;1.10;;
58992;SDS011;44782;0.000;0.000;2022-10-16T05:32:20;1.20;;;1.20;;
58992;SDS011;44782;0.000;0.000;2022-10-16T05:34:36;1.53;;;1.20;;
58992;SDS011;44782;0.000;0.000;2022-10-16T05:36:52;1.27;;;1.20;;
58992;SDS011;44782;0.000;0.000;2022-10-16T05:39:07;1.30;;;1.17;;
58992;SDS011;44782;0.000;0.000;2022-10-16T05:41:23;1.40;;;1.30;;
58992;SDS011;44782;0.000;0.000;2022-10-16T05:43:40;1.03;;;1.03;;
58992;SDS011;44782;0.000;0.000;2022-10-16T05:46:00;1.40;;;1.30;;
58992;SDS011;44782;0.000;0.000;2022-10-16T05:48:17;1.37;;;1.20;;
58992;SDS011;44782;0.000;0.000;2022-10-16T05:50:33;1.10;;;1.10;;
58992;SDS011;44782;0.000;0.000;2022-10-16T05:52:49;1.43;;;1.33;;
58992;SDS011;44782;0.000;0.000;2022-10-16T05:55:04;1.30;;;1.20;;
58992;SDS011;44782;0.000;0.000;2022-10-16T05:57:20;1.10;;;1.10;;
58992;SDS011;44782;0.000;0.000;2022-10-16T05:59:36;1.03;;;1.03;;
58992;SDS011;44782;0.000;0.000;2022-10-16T06:01:51;1.10;;;1.10;;
58992;SDS011;44782;0.000;0.000;2022-10-16T06:04:08;1.30;;;1.20;;
58992;SDS011;44782;0.000;0.000;2022-10-16T06:06:25;1.20;;;1.10;;
58992;SDS011;44782;0.000;0.000;2022-10-16T06:08:42;1.30;;;1.20;;
58992;SDS011;44782;0.000;0.000;2022-10-16T06:11:01;1.10;;;1.10;;
58992;SDS011;44782;0.000;0.000;2022-10-16T06:13:20;1.10;;;1.10;;
58992;SDS011;44782;0.000;0.000;2022-10-16T06:15:36;1.40;;;1.30;;
58992;SDS011;44782;0.000;0.000;2022-10-16T06:17:53;1.27;;;1.23;;
58992;SDS011;44782;0.000;0.000;2022-10-16T06:20:09;1.30;;;1.20;;
58992;SDS011;44782;0.000;0.000;2022-10-16T06:22:25;1.63;;;1.13;;
58992;SDS011;44782;0.000;0.000;2022-10-16T06:24:40;1.30;;;1.20;;
58992;SDS011;44782;0.000;0.000;2022-10-16T06:26:56;1.20;;;1.10;;
58992;SDS011;44782;0.000;0.000;2022-10-16T06:29:11;1.40;;;1.30;;
58992;SDS011;44782;0.000;0.000;2022-10-16T06:31:28;1.40;;;1.10;;
58992;SDS011;44782;0.000;0.000;2022-10-16T06:33:49;1.30;;;1.20;;
58992;SDS011;44782;0.000;0.000;2022-10-16T06:36:06;1.30;;;1.23;;
58992;SDS011;44782;0.000;0.000;2022-10-16T06:38:27;2.07;;;1.20;;
58992;SDS011;44782;0.000;0.000;2022-10-16T06:40:42;1.23;;;1.13;;
58992;SDS011;44782;0.000;0.000;2022-10-16T06:42:58;1.30;;;1.03;;
58992;SDS011;44782;0.000;0.000;2022-10-16T06:45:14;1.30;;;1.20;;
58992;SDS011;44782;0.000;0.000;2022-10-16T06:47:29;2.07;;;1.20;;
58992;SDS011;44782;0.000;0.000;2022-10-16T06:49:45;1.47;;;1.37;;
58992;SDS011;44782;0.000;0.000;2022-10-16T06:52:01;2.13;;;1.20;;
58992;SDS011;44782;0.000;0.000;2022-10-16T06:54:17;1.40;;;1.30;;
58992;SDS011;44782;0.000;0.000;2022-10-16T06:56:33;1.73;;;1.23;;
58992;SDS011;44782;0.000;0.000;2022-10-16T06:58:49;2.27;;;1.40;;
58992;SDS011;44782;0.000;0.000;2022-10-16T07:01:06;2.00;;;1.40;;
58992;SDS011;44782;0.000;0.000;2022-10-16T07:03:22;1.30;;;1.20;;
58992;SDS011;44782;0.000;0.000;2022-10-16T07:05:38;2.03;;;1.40;;
58992;SDS011;44782;0.000;0.000;2022-10-16T07:07:55;1.60;;;1.50;;
58992;SDS011;44782;0.000;0.000;2022-10-16T07:10:10;1.30;;;1.20;;
58992;SDS011;44782;0.000;0.000;2022-10-16T07:12:26;1.50;;;1.40;;
58992;SDS011;44782;0.000;0.000;2022-10-16T07:14:41;1.90;;;1.30;;
58992;SDS011;44782;0.000;0.000;2022-10-16T07:16:57;1.40;;;1.30;;
58992;SDS011;44782;0.000;0.000;2022-10-16T07:19:13;2.40;;;1.40;;
58992;SDS011;44782;0.000;0.000;2022-10-16T07:21:31;2.03;;;1.73;;
58992;SDS011;44782;0.000;0.000;2022-10-16T07:23:52;1.50;;;1.40;;
58992;SDS011;44782;0.000;0.000;2022-10-16T07:26:08;1.50;;;1.40;;
58992;SDS011;44782;0.000;0.000;2022-10-16T07:28:25;2.70;;;1.30;;
58992;SDS011;44782;0.000;0.000;2022-10-16T07:30:41;1.57;;;1.30;;
58992;SDS011;44782;0.000;0.000;2022-10-16T07:32:56;1.63;;;1.50;;
58992;SDS011;44782;0.000;0.000;2022-10-16T07:35:12;1.30;;;1.20;;
58992;SDS011;44782;0.000;0.000;2022-10-16T07:37:28;1.33;;;1.23;;
58992;SDS011;44782;0.000;0.000;2022-10-16T07:39:43;1.77;;;1.40;;
58992;SDS011;44782;0.000;0.000;2022-10-16T07:41:59;1.67;;;1.30;;
58992;SDS011;44782;0.000;0.000;2022-10-16T07:44:15;1.47;;;1.20;;
58992;SDS011;44782;0.000;0.000;2022-10-16T07:46:31;1.30;;;1.20;;
58992;SDS011;44782;0.000;0.000;2022-10-16T07:48:49;1.40;;;1.30;;
58992;SDS011;44782;0.000;0.000;2022-10-16T07:51:05;1.30;;;1.20;;
58992;SDS011;44782;0.000;0.000;2022-10-16T07:53:22;1.17;;;1.17;;
58992;SDS011;44782;0.000;0.000;2022-10-16T07:55:37;1.77;;;1.20;;
58992;SDS011;44782;0.000;0.000;2022-10-16T07:57:53;1.30;;;1.20;;
58992;SDS011;44782;0.000;0.000;2022-10-16T08:00:10;1.20;;;1.10;;
58992;SDS011;44782;0.000;0.000;2022-10-16T08:02:28;1.47;;;1.20;;
58992;SDS011;44782;0.000;0.000;2022-10-16T08:04:46;1.53;;;1.27;;
58992;SDS011;44782;0.000;0.000;2022-10-16T08:07:01;1.37;;;1.20;;
58992;SDS011;44782;0.000;0.000;2022-10-16T08:09:17;1.20;;;1.20;;
58992;SDS011;44782;0.000;0.000;2022-10-16T08:11:33;1.77;;;1.30;;
58992;SDS011;44782;0.000;0.000;2022-10-16T08:13:48;1.33;;;1.23;;
58992;SDS011;44782;0.000;0.000;2022-10-16T08:16:04;2.63;;;1.20;;
58992;SDS011;44782;0.000;0.000;2022-10-16T08:18:23;1.33;;;1.23;;
58992;SDS011;44782;0.000;0.000;2022-10-16T08:20:39;1.30;;;1.20;;
58992;SDS011;44782;0.000;0.000;2022-10-16T08:22:55;1.37;;;1.23;;
58992;SDS011;44782;0.000;0.000;2022-10-16T08:25:11;1.20;;;1.20;;
58992;SDS011;44782;0.000;0.000;2022-10-16T08:27:33;1.13;;;1.10;;
58992;SDS011;44782;0.000;0.000;2022-10-16T08:29:48;1.27;;;1.17;;
58992;SDS011;44782;0.000;0.000;2022-10-16T08:32:04;1.27;;;1.17;;
58992;SDS011;44782;0.000;0.000;2022-10-16T08:34:20;1.30;;;1.20;;
58992;SDS011;44782;0.000;0.000;2022-10-16T08:36:35;1.20;;;1.10;;
58992;SDS011;44782;0.000;0.000;2022-10-16T08:38:51;2.13;;;1.10;;
58992;SDS011;44782;0.000;0.000;2022-10-16T08:48:47;1.33;;;1.23;;
58992;SDS011;44782;0.000;0.000;2022-10-16T08:51:06;1.23;;;1.13;;
58992;SDS011;44782;0.000;0.000;2022-10-16T08:53:26;1.20;;;1.10;;
58992;SDS011;44782;0.000;0.000;2022-10-16T08:55:46;1.30;;;1.20;;
58992;SDS011;44782;0.000;0.000;2022-10-16T08:58:17;1.20;;;1.03;;
58992;SDS011;44782;0.000;0.000;2022-10-16T09:00:34;1.10;;;1.10;;
58992;SDS011;44782;0.000;0.000;2022-10-16T09:02:55;1.10;;;1.10;;
58992;SDS011;44782;0.000;0.000;2022-10-16T09:10:14;1.20;;;1.10;;
58992;SDS011;44782;0.000;0.000;2022-10-16T09:13:11;1.00;;;1.00;;
58992;SDS011;44782;0.000;0.000;2022-10-16T09:15:39;1.00;;;1.00;;
58992;SDS011;44782;0.000;0.000;2022-10-16T09:18:12;1.00;;;1.00;;
58992;SDS011;44782;0.000;0.000;2022-10-16T09:21:31;1.00;;;1.00;;
58992;SDS011;44782;0.000;0.000;2022-10-16T09:23:27;1.20;;;1.10;;
58992;SDS011;44782;0.000;0.000;2022-10-16T09:25:46;1.20;;;1.10;;
58992;SDS011;44782;0.000;0.000;2022-10-16T09:28:03;1.20;;;1.10;;
58992;SDS011;44782;0.000;0.000;2022-10-16T09:30:19;0.90;;;0.90;;
58992;SDS011;44782;0.000;0.000;2022-10-16T09:32:37;1.00;;;1.00;;
58992;SDS011;44782;0.000;0.000;2022-10-16T09:34:54;1.10;;;1.00;;
58992;SDS011;44782;0.000;0.000;2022-10-16T09:37:12;1.53;;;1.10;;
58992;SDS011;44782;0.000;0.000;2022-10-16T09:39:43;1.00;;;1.00;;
58992;SDS011;44782;0.000;0.000;2022-10-16T09:42:00;1.30;;;1.20;;
58992;SDS011;44782;0.000;0.000;2022-10-16T09:44:23;1.07;;;1.07;;
58992;SDS011;44782;0.000;0.000;2022-10-16T09:46:42;1.10;;;1.00;;
58992;SDS011;44782;0.000;0.000;2022-10-16T09:49:02;1.23;;;1.10;;
58992;SDS011;44782;0.000;0.000;2022-10-16T09:51:38;1.00;;;1.00;;
58992;SDS011;44782;0.000;0.000;2022-10-16T09:53:56;1.40;;;1.30;;
58992;SDS011;44782;0.000;0.000;2022-10-16T09:59:01;1.73;;;1.10;;
58992;SDS011;44782;0.000;0.000;2022-10-16T10:01:29;1.70;;;1.20;;
58992;SDS011;44782;0.000;0.000;2022-10-16T10:04:06;1.33;;;1.20;;
58992;SDS011;44782;0.000;0.000;2022-10-16T10:06:26;1.20;;;1.10;;
58992;SDS011;44782;0.000;0.000;2022-10-16T10:16:48;1.00;;;1.00;;
58992;SDS011;44782;0.000;0.000;2022-10-16T10:19:08;1.20;;;1.10;;
58992;SDS011;44782;0.000;0.000;2022-10-16T10:21:37;1.20;;;1.10;;
58992;SDS011;44782;0.000;0.000;2022-10-16T10:23:56;1.17;;;1.10;;
58992;SDS011;44782;0.000;0.000;2022-10-16T10:28:46;1.37;;;1.27;;
58992;SDS011;44782;0.000;0.000;2022-10-16T10:33:59;1.40;;;1.30;;
58992;SDS011;44782;0.000;0.000;2022-10-16T10:36:37;1.40;;;1.30;;
58992;SDS011;44782;0.000;0.000;2022-10-16T10:39:04;1.33;;;1.17;;
58992;SDS011;44782;0.000;0.000;2022-10-16T10:44:07;1.30;;;1.20;;
58992;SDS011;44782;0.000;0.000;2022-10-16T10:49:00;1.40;;;1.30;;
58992;SDS011;44782;0.000;0.000;2022-10-16T10:51:28;1.40;;;1.30;;
58992;SDS011;44782;0.000;0.000;2022-10-16T11:01:10;1.90;;;1.30;;
58992;SDS011;44782;0.000;0.000;2022-10-16T11:03:35;1.47;;;1.37;;
58992;SDS011;44782;0.000;0.000;2022-10-16T11:06:16;1.37;;;1.27;;
58992;SDS011;44782;0.000;0.000;2022-10-16T11:08:41;1.70;;;1.50;;
58992;SDS011;44782;0.000;0.000;2022-10-16T11:11:14;2.03;;;1.30;;
58992;SDS011;44782;0.000;0.000;2022-10-16T11:16:16;1.53;;;1.40;;
58992;SDS011;44782;0.000;0.000;2022-10-16T11:21:25;1.83;;;1.30;;
58992;SDS011;44782;0.000;0.000;2022-10-16T11:26:19;1.30;;;1.20;;
58992;SDS011;44782;0.000;0.000;2022-10-16T11:28:42;1.63;;;1.50;;
58992;SDS011;44782;0.000;0.000;2022-10-16T11:33:42;1.90;;;1.40;;
58992;SDS011;44782;0.000;0.000;2022-10-16T11:36:04;1.53;;;1.40;;
58992;SDS011;44782;0.000;0.000;2022-10-16T11:40:40;1.40;;;1.30;;
58992;SDS011;44782;0.000;0.000;2022-10-16T11:43:20;1.20;;;1.10;;
58992;SDS011;44782;0.000;0.000;2022-10-16T11:48:05;2.53;;;1.20;;
58992;SDS011;44782;0.000;0.000;2022-10-16T11:55:41;3.40;;;1.70;;
58992;SDS011;44782;0.000;0.000;2022-10-16T12:00:31;1.67;;;1.17;;
58992;SDS011;44782;0.000;0.000;2022-10-16T12:08:09;1.93;;;1.33;;
58992;SDS011;44782;0.000;0.000;2022-10-16T12:10:30;5.10;;;2.40;;
58992;SDS011;44782;0.000;0.000;2022-10-16T12:12:52;6.23;;;2.77;;
58992;SDS011;44782;0.000;0.000;2022-10-16T12:17:44;10.10;;;5.43;;
58992;SDS011;44782;0.000;0.000;2022-10-16T12:20:00;12.37;;;6.50;;
58992;SDS011;44782;0.000;0.000;2022-10-16T12:22:31;16.77;;;7.20;;
58992;SDS011;44782;0.000;0.000;2022-10-16T12:24:50;13.87;;;6.20;;
58992;SDS011;44782;0.000;0.000;2022-10-16T12:27:19;13.43;;;5.77;;
58992;SDS011;44782;0.000;0.000;2022-10-16T12:29:44;16.87;;;6.23;;
58992;SDS011;44782;0.000;0.000;2022-10-16T12:32:00;13.67;;;5.93;;
58992;SDS011;44782;0.000;0.000;2022-10-16T12:34:23;13.13;;;5.57;;
58992;SDS011;44782;0.000;0.000;2022-10-16T12:36:47;13.30;;;5.30;;
58992;SDS011;44782;0.000;0.000;2022-10-16T12:39:03;13.50;;;5.40;;
58992;SDS011;44782;0.000;0.000;2022-10-16T12:41:26;9.67;;;5.13;;
58992;SDS011;44782;0.000;0.000;2022-10-16T12:43:45;12.23;;;4.80;;
58992;SDS011;44782;0.000;0.000;2022-10-16T12:48:24;10.47;;;4.50;;
58992;SDS011;44782;0.000;0.000;2022-10-16T12:50:40;8.50;;;4.70;;
58992;SDS011;44782;0.000;0.000;2022-10-16T12:52:56;9.67;;;4.00;;
58992;SDS011;44782;0.000;0.000;2022-10-16T12:55:15;8.57;;;4.23;;
58992;SDS011;44782;0.000;0.000;2022-10-16T13:00:24;6.93;;;3.73;;
58992;SDS011;44782;0.000;0.000;2022-10-16T13:11:17;7.73;;;3.70;;
58992;SDS011;44782;0.000;0.000;2022-10-16T13:13:50;6.67;;;3.77;;
58992;SDS011;44782;0.000;0.000;2022-10-16T13:16:26;8.70;;;3.70;;
58992;SDS011;44782;0.000;0.000;2022-10-16T13:21:59;5.97;;;3.30;;
58992;SDS011;44782;0.000;0.000;2022-10-16T13:30:02;4.57;;;2.97;;
58992;SDS011;44782;0.000;0.000;2022-10-16T13:32:27;5.47;;;3.03;;
58992;SDS011;44782;0.000;0.000;2022-10-16T13:34:54;3.78;;;2.88;;
58992;SDS011;44782;0.000;0.000;2022-10-16T13:37:21;5.07;;;2.83;;
58992;SDS011;44782;0.000;0.000;2022-10-16T13:39:38;4.97;;;2.90;;
58992;SDS011;44782;0.000;0.000;2022-10-16T13:44:20;4.27;;;2.70;;
58992;SDS011;44782;0.000;0.000;2022-10-16T13:46:36;4.73;;;2.90;;
58992;SDS011;44782;0.000;0.000;2022-10-16T13:48:58;6.20;;;2.87;;
58992;SDS011;44782;0.000;0.000;2022-10-16T13:51:16;4.67;;;2.57;;
58992;SDS011;44782;0.000;0.000;2022-10-16T13:53:33;4.60;;;2.57;;
58992;SDS011;44782;0.000;0.000;2022-10-16T13:55:50;6.33;;;2.60;;
58992;SDS011;44782;0.000;0.000;2022-10-16T13:58:11;4.23;;;2.57;;
58992;SDS011;44782;0.000;0.000;2022-10-16T14:00:29;5.40;;;2.90;;
58992;SDS011;44782;0.000;0.000;2022-10-16T14:02:49;4.30;;;2.43;;
58992;SDS011;44782;0.000;0.000;2022-10-16T14:05:13;4.60;;;2.73;;
58992;SDS011;44782;0.000;0.000;2022-10-16T14:07:31;2.80;;;2.47;;
58992;SDS011;44782;0.000;0.000;2022-10-16T14:09:49;6.93;;;2.50;;
58992;SDS011;44782;0.000;0.000;2022-10-16T14:12:10;7.30;;;2.87;;
58992;SDS011;44782;0.000;0.000;2022-10-16T14:14:29;4.40;;;2.50;;
58992;SDS011;44782;0.000;0.000;2022-10-16T14:16:54;2.97;;;2.03;;
58992;SDS011;44782;0.000;0.000;2022-10-16T14:19:27;3.43;;;2.40;;
58992;SDS011;44782;0.000;0.000;2022-10-16T14:21:44;3.67;;;2.20;;
58992;SDS011;44782;0.000;0.000;2022-10-16T14:24:10;3.60;;;2.30;;
58992;SDS011;44782;0.000;0.000;2022-10-16T14:26:41;3.67;;;2.40;;
58992;SDS011;44782;0.000;0.000;2022-10-16T14:29:08;4.33;;;2.37;;
58992;SDS011;44782;0.000;0.000;2022-10-16T14:31:30;3.00;;;2.30;;
58992;SDS011;44782;0.000;0.000;2022-10-16T14:33:47;2.37;;;2.00;;
58992;SDS011;44782;0.000;0.000;2022-10-16T14:36:04;2.83;;;1.90;;
58992;SDS011;44782;0.000;0.000;2022-10-16T14:38:28;5.30;;;2.30;;
58992;SDS011;44782;0.000;0.000;2022-10-16T14:40:48;4.83;;;1.83;;
58992;SDS011;44782;0.000;0.000;2022-10-16T14:43:05;2.90;;;1.90;;
58992;SDS011;44782;0.000;0.000;2022-10-16T14:45:22;5.43;;;2.00;;
58992;SDS011;44782;0.000;0.000;2022-10-16T14:47:48;3.70;;;2.10;;
58992;SDS011;44782;0.000;0.000;2022-10-16T14:50:09;3.53;;;2.10;;
58992;SDS011;44782;0.000;0.000;2022-10-16T14:52:24;3.47;;;2.10;;
58992;SDS011;44782;0.000;0.000;2022-10-16T14:54:40;4.57;;;2.13;;
58992;SDS011;44782;0.000;0.000;2022-10-16T14:56:57;3.00;;;1.83;;
58992;SDS011;44782;0.000;0.000;2022-10-16T15:01:50;3.53;;;2.00;;
58992;SDS011;44782;0.000;0.000;2022-10-16T15:04:07;3.20;;;1.80;;
58992;SDS011;44782;0.000;0.000;2022-10-16T15:06:25;3.40;;;1.90;;
58992;SDS011;44782;0.000;0.000;2022-10-16T15:08:41;2.60;;;1.87;;
58992;SDS011;44782;0.000;0.000;2022-10-16T15:10:57;2.37;;;1.93;;
58992;SDS011;44782;0.000;0.000;2022-10-16T15:13:12;2.43;;;1.90;;
58992;SDS011;44782;0.000;0.000;2022-10-16T15:15:33;3.20;;;1.80;;
58992;SDS011;44782;0.000;0.000;2022-10-16T15:17:53;1.97;;;1.77;;
58992;SDS011;44782;0.000;0.000;2022-10-16T15:20:15;2.03;;;1.83;;
58992;SDS011;44782;0.000;0.000;2022-10-16T15:22:30;2.90;;;1.80;;
58992;SDS011;44782;0.000;0.000;2022-10-16T15:24:46;1.70;;;1.57;;
58992;SDS011;44782;0.000;0.000;2022-10-16T15:27:02;2.93;;;1.80;;
58992;SDS011;44782;0.000;0.000;2022-10-16T15:29:17;2.03;;;1.70;;
58992;SDS011;44782;0.000;0.000;2022-10-16T15:31:33;2.77;;;1.90;;
58992;SDS011;44782;0.000;0.000;2022-10-16T15:33:49;3.27;;;1.70;;
58992;SDS011;44782;0.000;0.000;2022-10-16T15:36:08;2.83;;;2.00;;
58992;SDS011;44782;0.000;0.000;2022-10-16T15:38:24;2.10;;;1.73;;
58992;SDS011;44782;0.000;0.000;2022-10-16T15:40:41;1.90;;;1.80;;
58992;SDS011;44782;0.000;0.000;2022-10-16T15:42:57;1.70;;;1.60;;
58992;SDS011;44782;0.000;0.000;2022-10-16T15:45:13;3.10;;;1.77;;
58992;SDS011;44782;0.000;0.000;2022-10-16T15:47:28;2.97;;;1.70;;
58992;SDS011;44782;0.000;0.000;2022-10-16T15:49:44;1.77;;;1.67;;
58992;SDS011;44782;0.000;0.000;2022-10-16T15:52:00;2.00;;;1.90;;
58992;SDS011;44782;0.000;0.000;2022-10-16T15:54:16;2.13;;;1.70;;
58992;SDS011;44782;0.000;0.000;2022-10-16T15:56:36;2.10;;;1.90;;
58992;SDS011;44782;0.000;0.000;2022-10-16T15:58:52;2.67;;;1.60;;
58992;SDS011;44782;0.000;0.000;2022-10-16T16:01:08;4.23;;;1.70;;
58992;SDS011;44782;0.000;0.000;2022-10-16T16:03:25;2.57;;;1.80;;
58992;SDS011;44782;0.000;0.000;2022-10-16T16:05:41;2.20;;;1.70;;
58992;SDS011;44782;0.000;0.000;2022-10-16T16:07:57;1.97;;;1.73;;